Terminal Aerodrome Forecast
Issued by NWS Charleston, WV

Current Version | Previous Version | Graphics & Text | Print | Product List | Glossary On
Versions: 1 2 3 4 5 6 7 8 9 10 11 12 13 14 15 16 17 18 19
417
FTUS41 KRLX 191752 CCA
TAFBKW
TAF COR
KBKW 191752Z 1918/2018 32015G23KT 6SM -SHRASN BKN020
      TEMPO 1918/1920 2SM -SHSN BKN015
     FM192000 32016G22KT P6SM BKN040
     FM200200 32011KT P6SM SCT250=

USA.gov is the U.S. government's official web portal to all federal, state and local government web resources and services.